Pacolet Mills, South Carolina
Current Conditions -  °F | °C
As of 3:55 PM on Friday 28 Nov 2014 (Local Time) from KSPA Reporting Station
Clear Clear  
Wind Chill: 48°   Ceiling: Unl
Heat Index: 48°   Visibility: 10mi
Dew Point: 16°   Wind: 3mph
Humidity: 27%   Direction: 250°WSW
Pressure: 30.27"   Gusts: NA
Location:  34.92°N, 81.74°W
Report Text: KSPA 282055Z AUTO 25003KT 10SM CLR 09/M09 A3027 RMK AO2
Loading
Personal Weather Stations






























Interactive Weather Map New forecast layout! Learn more

10-Day Weather Forecast

Advertisements
Track Severe Weather on mobile